Welton, Iowa
Current Conditions -  °F | °C
As of 8:35 AM on Sunday 23 Nov 2014 (Local Time) from KCWI Reporting Station
Overcast Overcast  
Wind Chill:   Ceiling: 2400
Heat Index:   Visibility: 4mi
Dew Point:   Wind: 12mph
Humidity: 87%   Direction: 160°SSE
Pressure: 29.67"   Gusts: NA
Location:  41.91°N, 90.6°W
Report Text: KCWI 231435Z AUTO 16010KT 4SM SCT015 BKN024 OVC030 09/07 A2967 RMK AO1 P0007
Loading
Personal Weather Stations






























Interactive Weather Map New forecast layout! Learn more

10-Day Weather Forecast

Advertisements
Track Severe Weather on mobile